createdAt,value
2019-03-11T00:00:10.750Z,40.40
2019-03-11T00:02:37.385Z,40.40
2019-03-11T00:05:03.328Z,40.40
2019-03-11T00:07:29.306Z,40.40
2019-03-11T00:09:55.350Z,40.50
2019-03-11T00:12:21.298Z,40.40
2019-03-11T00:14:47.270Z,40.40
2019-03-11T00:17:13.216Z,40.40
2019-03-11T00:19:39.175Z,40.40
2019-03-11T00:22:05.162Z,40.50
2019-03-11T00:24:31.110Z,40.40
2019-03-11T00:26:57.064Z,40.40
2019-03-11T00:29:23.021Z,40.40
2019-03-11T00:31:48.996Z,40.30
2019-03-11T00:34:14.927Z,40.40
2019-03-11T00:36:40.872Z,40.50
2019-03-11T00:39:06.843Z,40.50
2019-03-11T00:41:32.811Z,40.50
2019-03-11T00:43:58.756Z,40.40
2019-03-11T00:46:24.725Z,40.40
2019-03-11T00:48:50.690Z,40.40
2019-03-11T00:51:16.673Z,40.50
2019-03-11T00:53:42.635Z,40.50
2019-03-11T00:56:08.576Z,40.40
2019-03-11T00:58:34.522Z,40.40
2019-03-11T01:01:00.461Z,40.40
2019-03-11T01:03:26.434Z,40.40
2019-03-11T01:05:52.395Z,40.50
2019-03-11T01:08:18.454Z,40.50
2019-03-11T01:10:44.403Z,40.50
2019-03-11T01:13:10.388Z,40.40
2019-03-11T01:15:36.352Z,40.50
2019-03-11T01:18:02.453Z,40.40
2019-03-11T01:20:28.479Z,40.40
2019-03-11T01:22:54.532Z,40.40
2019-03-11T01:25:20.515Z,40.50
2019-03-11T01:27:46.543Z,40.50
2019-03-11T01:30:12.517Z,40.50
2019-03-11T01:32:38.697Z,40.50
2019-03-11T01:35:04.669Z,40.40
2019-03-11T01:37:30.640Z,40.40
2019-03-11T01:39:56.631Z,40.40
2019-03-11T01:42:22.565Z,40.50
2019-03-11T01:44:48.511Z,40.50
2019-03-11T01:47:14.445Z,40.50
2019-03-11T01:49:40.396Z,40.50
2019-03-11T01:52:06.341Z,40.40
2019-03-11T01:54:32.288Z,40.40
2019-03-11T01:56:58.259Z,40.40
2019-03-11T01:59:24.188Z,40.30
2019-03-11T02:01:50.129Z,40.40
2019-03-11T02:04:16.077Z,40.40
2019-03-11T02:06:42.041Z,40.50
2019-03-11T02:09:08.077Z,40.40
2019-03-11T02:11:34.048Z,40.40
2019-03-11T02:14:00.131Z,40.40
2019-03-11T02:16:26.191Z,40.40
2019-03-11T02:18:52.141Z,40.40
2019-03-11T02:21:18.107Z,40.30
2019-03-11T02:23:44.061Z,40.30
2019-03-11T02:26:10.006Z,40.30
2019-03-11T02:28:36.061Z,40.30
2019-03-11T02:31:02.096Z,40.30
2019-03-11T02:33:28.133Z,40.30
2019-03-11T02:35:54.103Z,40.30
2019-03-11T02:38:20.072Z,40.30
2019-03-11T02:40:46.158Z,40.30
2019-03-11T02:43:12.149Z,40.20
2019-03-11T02:45:38.188Z,40.20
2019-03-11T02:48:04.136Z,40.20
2019-03-11T02:50:30.090Z,40.20
2019-03-11T02:52:56.040Z,40.20
2019-03-11T02:55:22.077Z,40.20
2019-03-11T02:57:48.039Z,40.20
2019-03-11T03:00:14.518Z,40.20
2019-03-11T03:02:44.101Z,40.20
2019-03-11T03:05:14.803Z,40.10
2019-03-11T03:07:40.834Z,40.20
2019-03-11T03:10:06.828Z,40.20
2019-03-11T03:12:33.590Z,40.10
2019-03-11T03:14:59.529Z,40.10
2019-03-11T03:17:25.486Z,40.10
2019-03-11T03:19:51.529Z,40.10
2019-03-11T03:22:17.619Z,40.20
2019-03-11T03:24:43.604Z,40.10
2019-03-11T03:27:09.677Z,40.10
2019-03-11T03:29:35.645Z,40.10
2019-03-11T03:32:01.698Z,40.00
2019-03-11T03:34:27.662Z,40.00
2019-03-11T03:36:53.727Z,40.10
2019-03-11T03:39:19.654Z,40.10
2019-03-11T03:41:45.665Z,40.00
2019-03-11T03:44:11.719Z,40.00
2019-03-11T03:46:37.682Z,40.00
2019-03-11T03:49:03.644Z,40.00
2019-03-11T03:51:29.591Z,40.00
2019-03-11T03:53:55.598Z,40.00
2019-03-11T03:56:21.596Z,40.00
2019-03-11T03:58:47.554Z,40.00
2019-03-11T04:01:13.504Z,40.00
2019-03-11T04:03:39.436Z,40.00
2019-03-11T04:06:05.400Z,40.00
2019-03-11T04:08:31.459Z,40.00
2019-03-11T04:10:57.481Z,39.90
2019-03-11T04:13:23.457Z,40.00
2019-03-11T04:15:49.408Z,39.90
2019-03-11T04:18:15.367Z,40.00
2019-03-11T04:20:41.427Z,40.00
2019-03-11T04:23:07.405Z,40.00
2019-03-11T04:25:33.450Z,40.50
2019-03-11T04:27:59.495Z,40.00
2019-03-11T04:30:25.492Z,39.80
2019-03-11T04:32:51.570Z,39.90
2019-03-11T04:35:17.495Z,39.80
2019-03-11T04:37:43.464Z,39.80
2019-03-11T04:40:09.508Z,39.80
2019-03-11T04:42:35.684Z,39.80
2019-03-11T04:45:01.653Z,39.90
2019-03-11T04:47:27.718Z,39.80
2019-03-11T04:49:53.668Z,39.80
2019-03-11T04:52:19.661Z,39.80
2019-03-11T04:54:45.694Z,39.80
2019-03-11T04:57:11.632Z,39.80
2019-03-11T04:59:37.588Z,39.70
2019-03-11T05:02:03.531Z,39.60
2019-03-11T05:04:29.496Z,39.60
2019-03-11T05:06:55.437Z,39.60
2019-03-11T05:09:21.374Z,39.60
2019-03-11T05:11:47.342Z,39.60
2019-03-11T05:14:13.301Z,39.50
2019-03-11T05:16:39.248Z,39.60
2019-03-11T05:19:05.231Z,39.60
2019-03-11T05:21:31.181Z,39.60
2019-03-11T05:23:57.160Z,39.60
2019-03-11T05:26:23.101Z,39.70
2019-03-11T05:28:49.518Z,39.80
2019-03-11T05:31:15.605Z,40.00
2019-03-11T05:33:41.548Z,40.00
2019-03-11T05:36:07.507Z,39.90
2019-03-11T05:38:33.462Z,39.80
2019-03-11T05:40:59.402Z,39.90
2019-03-11T05:43:25.361Z,39.90
2019-03-11T05:45:51.317Z,40.00
2019-03-11T05:48:17.372Z,40.00
2019-03-11T05:50:43.423Z,39.90
2019-03-11T05:53:09.367Z,40.00
2019-03-11T05:55:35.483Z,40.00
2019-03-11T05:58:01.872Z,40.00
2019-03-11T06:00:30.548Z,40.00
2019-03-11T06:02:57.183Z,40.20
2019-03-11T06:05:23.207Z,40.30
2019-03-11T06:07:49.206Z,40.50
2019-03-11T06:10:15.246Z,40.40
2019-03-11T06:12:41.171Z,40.50
2019-03-11T06:15:07.140Z,40.50
2019-03-11T06:17:33.213Z,40.50
2019-03-11T06:20:01.176Z,40.50
2019-03-11T06:22:27.118Z,40.60
2019-03-11T06:24:53.066Z,40.50
2019-03-11T06:27:19.015Z,41.10
2019-03-11T06:29:44.963Z,40.50
2019-03-11T06:32:10.911Z,40.50
2019-03-11T06:34:36.861Z,40.60
2019-03-11T06:37:02.795Z,40.60
2019-03-11T06:39:28.762Z,40.50
2019-03-11T06:41:54.726Z,40.50
2019-03-11T06:44:20.695Z,40.50
2019-03-11T06:46:46.653Z,40.40
2019-03-11T06:49:12.605Z,40.50
2019-03-11T06:51:38.553Z,40.50
2019-03-11T06:54:04.505Z,40.50
2019-03-11T06:56:30.457Z,40.50
2019-03-11T06:58:56.412Z,40.40
2019-03-11T07:01:22.363Z,40.40
2019-03-11T07:03:48.314Z,41.20
2019-03-11T07:06:14.313Z,40.30
2019-03-11T07:08:40.273Z,40.50
2019-03-11T07:11:06.229Z,40.40
2019-03-11T07:13:32.214Z,40.40
2019-03-11T07:15:58.266Z,40.40
2019-03-11T07:18:24.219Z,40.40
2019-03-11T07:20:50.163Z,40.40
2019-03-11T07:23:16.127Z,40.30
2019-03-11T07:25:42.102Z,40.40
2019-03-11T07:28:08.076Z,40.50
2019-03-11T07:30:34.039Z,40.40
2019-03-11T07:33:00.098Z,40.30
2019-03-11T07:35:26.053Z,40.30
2019-03-11T07:37:52.007Z,40.30
2019-03-11T07:40:29.250Z,40.30
2019-03-11T07:42:46.176Z,40.30
2019-03-11T07:45:12.191Z,40.40
2019-03-11T07:47:38.140Z,39.80
2019-03-11T07:50:04.130Z,40.30
2019-03-11T07:52:30.235Z,40.30
2019-03-11T07:54:56.201Z,40.30
2019-03-11T07:57:22.300Z,40.30
2019-03-11T07:59:48.342Z,40.30
2019-03-11T08:02:14.287Z,40.30
2019-03-11T08:04:40.243Z,40.30
2019-03-11T08:07:06.228Z,40.30
2019-03-11T08:09:37.812Z,40.30
2019-03-11T08:12:00.045Z,40.20
2019-03-11T08:14:26.103Z,40.30
2019-03-11T08:16:52.070Z,40.30
2019-03-11T08:19:18.274Z,40.30
2019-03-11T08:21:44.354Z,40.30
2019-03-11T08:24:10.289Z,40.30
2019-03-11T08:26:36.246Z,40.60
2019-03-11T08:29:02.174Z,40.20
2019-03-11T08:31:28.144Z,40.20
2019-03-11T08:33:54.086Z,40.10
2019-03-11T08:36:20.056Z,40.00
2019-03-11T08:38:46.017Z,40.00
2019-03-11T08:41:11.973Z,39.90
2019-03-11T08:43:38.080Z,40.00
2019-03-11T08:46:04.037Z,39.90
2019-03-11T08:48:29.972Z,39.80
2019-03-11T08:50:55.944Z,39.70
2019-03-11T08:53:21.920Z,39.60
2019-03-11T08:55:47.872Z,39.60
2019-03-11T08:58:13.806Z,39.50
2019-03-11T09:00:39.869Z,39.40
2019-03-11T09:03:05.802Z,39.40
2019-03-11T09:05:31.758Z,39.20
2019-03-11T09:07:57.696Z,39.30
2019-03-11T09:10:23.687Z,39.20
2019-03-11T09:12:49.626Z,39.20
2019-03-11T09:15:15.611Z,39.10
2019-03-11T09:17:41.560Z,39.20
2019-03-11T09:20:07.505Z,39.00
2019-03-11T09:22:33.440Z,39.00
2019-03-11T09:24:59.400Z,38.90
2019-03-11T09:27:25.346Z,39.00
2019-03-11T09:29:51.310Z,38.80
2019-03-11T09:32:19.327Z,38.50
2019-03-11T09:34:45.115Z,38.50
2019-03-11T09:37:11.054Z,38.50
2019-03-11T09:39:37.007Z,38.60
2019-03-11T09:42:02.962Z,38.60
2019-03-11T09:44:28.997Z,38.60
2019-03-11T09:46:54.940Z,38.40
2019-03-11T09:49:20.904Z,38.40
2019-03-11T09:51:46.841Z,38.30
2019-03-11T09:54:12.902Z,38.20
2019-03-11T09:56:43.107Z,38.20
2019-03-11T09:59:06.742Z,38.20
2019-03-11T10:01:32.698Z,38.20
2019-03-11T10:03:58.659Z,38.30
2019-03-11T10:06:24.612Z,38.30
2019-03-11T10:08:50.566Z,38.40
2019-03-11T10:11:16.542Z,38.40
2019-03-11T10:13:42.486Z,38.40
2019-03-11T10:16:08.449Z,38.40
2019-03-11T10:18:34.407Z,38.50
2019-03-11T10:21:00.357Z,38.50
2019-03-11T10:23:32.121Z,38.50
2019-03-11T10:25:54.188Z,38.60
2019-03-11T10:28:20.127Z,38.50
2019-03-11T10:30:46.085Z,38.50
2019-03-11T10:33:12.125Z,38.50
2019-03-11T10:35:38.051Z,38.50
2019-03-11T10:38:04.009Z,38.50
2019-03-11T10:40:29.955Z,38.50
2019-03-11T10:42:55.929Z,38.60
2019-03-11T10:45:30.574Z,38.50
2019-03-11T10:47:49.700Z,38.60
2019-03-11T10:50:15.650Z,38.60
2019-03-11T10:52:43.659Z,38.50
2019-03-11T10:55:09.626Z,38.50
2019-03-11T10:57:35.586Z,38.50
2019-03-11T11:00:01.656Z,38.50
2019-03-11T11:02:28.006Z,38.60
2019-03-11T11:04:54.022Z,38.60
2019-03-11T11:07:20.049Z,38.60
2019-03-11T11:09:46.017Z,38.60
2019-03-11T11:12:11.974Z,38.50
2019-03-11T11:14:37.906Z,38.60
2019-03-11T11:17:03.867Z,38.60
2019-03-11T11:19:29.832Z,38.50
2019-03-11T11:21:55.797Z,38.60
2019-03-11T11:24:21.750Z,38.50
2019-03-11T11:26:47.728Z,38.50
2019-03-11T11:29:13.688Z,38.50
2019-03-11T11:31:39.655Z,38.40
2019-03-11T11:34:05.587Z,38.40
2019-03-11T11:36:31.554Z,38.40
2019-03-11T11:38:57.493Z,38.30
2019-03-11T11:41:23.464Z,38.30
2019-03-11T11:43:49.527Z,38.40
2019-03-11T11:46:15.471Z,38.40
2019-03-11T11:48:41.411Z,38.40
2019-03-11T11:51:07.467Z,38.40
2019-03-11T11:53:33.415Z,38.40
2019-03-11T11:55:59.380Z,38.40
2019-03-11T11:58:25.317Z,38.40
2019-03-11T12:00:51.555Z,38.40
2019-03-11T12:03:17.527Z,38.30
2019-03-11T12:05:43.483Z,38.30
2019-03-11T12:08:09.457Z,38.20
2019-03-11T12:10:35.424Z,38.20
2019-03-11T12:13:01.361Z,38.20
2019-03-11T12:15:27.323Z,38.20
2019-03-11T12:17:53.252Z,38.10
2019-03-11T12:20:19.211Z,38.00
2019-03-11T12:22:45.327Z,38.00
2019-03-11T12:25:11.314Z,38.00
2019-03-11T12:27:37.342Z,38.00
2019-03-11T12:30:03.325Z,38.10
2019-03-11T12:32:29.284Z,38.00
2019-03-11T12:34:55.321Z,38.10
2019-03-11T12:37:21.299Z,38.10
2019-03-11T12:39:47.344Z,38.10
2019-03-11T12:42:13.308Z,38.00
2019-03-11T12:44:39.267Z,38.70
2019-03-11T12:47:05.237Z,38.00
2019-03-11T12:49:31.170Z,38.00
2019-03-11T12:51:57.134Z,38.10
2019-03-11T12:54:23.113Z,38.10
2019-03-11T12:56:49.071Z,38.00
2019-03-11T12:59:15.127Z,37.90
2019-03-11T13:01:41.176Z,38.10
2019-03-11T13:04:07.240Z,38.60
2019-03-11T13:06:33.204Z,37.80
2019-03-11T13:08:59.153Z,37.70
2019-03-11T13:11:25.104Z,37.60
2019-03-11T13:13:51.044Z,38.30
2019-03-11T13:16:17.006Z,37.50
2019-03-11T13:18:43.060Z,37.50
2019-03-11T13:21:09.021Z,37.50
2019-03-11T13:23:34.948Z,37.40
2019-03-11T13:26:01.051Z,37.40
2019-03-11T13:28:27.268Z,37.40
2019-03-11T13:30:53.232Z,37.40
2019-03-11T13:33:19.198Z,37.30
2019-03-11T13:35:45.158Z,37.40
2019-03-11T13:38:11.124Z,37.40
2019-03-11T13:40:37.106Z,37.50
2019-03-11T13:43:03.078Z,37.50
2019-03-11T13:45:29.156Z,37.40
2019-03-11T13:47:55.082Z,37.40
2019-03-11T13:50:21.048Z,37.50
2019-03-11T13:52:47.404Z,37.50
2019-03-11T13:55:13.426Z,37.40
2019-03-11T13:57:39.368Z,37.40
2019-03-11T14:00:05.314Z,37.50
2019-03-11T14:02:31.560Z,37.70
2019-03-11T14:04:57.510Z,37.60
2019-03-11T14:07:23.466Z,37.60
2019-03-11T14:09:49.440Z,37.60
2019-03-11T14:12:15.425Z,37.70
2019-03-11T14:14:41.455Z,37.60
2019-03-11T14:17:07.425Z,37.60
2019-03-11T14:19:33.393Z,37.60
2019-03-11T14:21:59.359Z,37.60
2019-03-11T14:24:25.323Z,37.50
2019-03-11T14:26:51.281Z,37.50
2019-03-11T14:29:17.259Z,37.50
2019-03-11T14:31:43.310Z,37.50
2019-03-11T14:34:09.283Z,37.50
2019-03-11T14:36:35.221Z,37.50
2019-03-11T14:39:01.185Z,37.50
2019-03-11T14:41:27.137Z,37.50
2019-03-11T14:43:53.138Z,38.10
2019-03-11T14:46:19.181Z,37.60
2019-03-11T14:48:45.178Z,37.40
2019-03-11T14:51:11.209Z,37.50
2019-03-11T14:53:37.163Z,37.50
2019-03-11T14:56:03.208Z,37.50
2019-03-11T14:58:29.918Z,37.60
2019-03-11T15:00:55.997Z,37.60
2019-03-11T15:03:21.933Z,37.60
2019-03-11T15:05:47.918Z,37.60
2019-03-11T15:08:13.948Z,37.50
2019-03-11T15:10:39.921Z,37.50
2019-03-11T15:13:05.896Z,37.50
2019-03-11T15:15:31.906Z,37.50
2019-03-11T15:17:57.901Z,37.30
2019-03-11T15:20:23.837Z,37.30
2019-03-11T15:22:50.267Z,37.30
2019-03-11T15:25:16.318Z,37.30
2019-03-11T15:27:42.343Z,37.20
2019-03-11T15:30:08.323Z,37.20
2019-03-11T15:32:34.282Z,37.20
2019-03-11T15:35:00.362Z,37.20
2019-03-11T15:37:26.383Z,37.20
2019-03-11T15:39:52.360Z,37.20
2019-03-11T15:42:18.413Z,37.20
2019-03-11T15:44:44.400Z,37.40
2019-03-11T15:47:10.361Z,37.30
2019-03-11T15:49:36.327Z,37.30
2019-03-11T15:52:02.468Z,37.30
2019-03-11T15:54:28.400Z,37.30
2019-03-11T15:56:54.368Z,37.30
2019-03-11T15:59:20.309Z,37.20
2019-03-11T16:01:46.252Z,37.30
2019-03-11T16:04:12.218Z,37.40
2019-03-11T16:06:38.160Z,37.40
2019-03-11T16:09:04.145Z,37.30
2019-03-11T16:11:30.190Z,37.30
2019-03-11T16:13:56.127Z,37.20
2019-03-11T16:16:22.093Z,37.20
2019-03-11T16:18:48.125Z,37.00
2019-03-11T16:21:14.083Z,37.00
2019-03-11T16:23:40.044Z,37.10
2019-03-11T16:26:06.134Z,37.10
2019-03-11T16:28:32.097Z,37.20
2019-03-11T16:30:58.146Z,37.10
2019-03-11T16:33:24.193Z,37.20
2019-03-11T16:35:50.148Z,37.10
2019-03-11T16:38:16.204Z,37.30
2019-03-11T16:40:42.183Z,37.20
2019-03-11T16:43:08.223Z,37.20
2019-03-11T16:45:34.186Z,37.30
2019-03-11T16:48:00.157Z,37.20
2019-03-11T16:50:26.122Z,37.20
2019-03-11T16:52:52.396Z,37.10
2019-03-11T16:55:20.341Z,37.00
2019-03-11T16:57:46.295Z,37.00
2019-03-11T17:00:12.463Z,37.00
2019-03-11T17:02:38.904Z,37.00
2019-03-11T17:05:04.846Z,37.00
2019-03-11T17:07:30.825Z,37.10
2019-03-11T17:09:56.884Z,37.00
2019-03-11T17:12:22.850Z,37.10
2019-03-11T17:14:48.816Z,37.00
2019-03-11T17:17:14.793Z,37.00
2019-03-11T17:19:40.840Z,37.00
2019-03-11T17:22:08.515Z,37.00
2019-03-11T17:24:34.644Z,37.10
2019-03-11T17:27:00.578Z,37.10
2019-03-11T17:29:26.574Z,37.10
2019-03-11T17:31:52.664Z,37.10
2019-03-11T17:34:18.708Z,37.10
2019-03-11T17:36:44.668Z,37.10
2019-03-11T17:39:10.647Z,37.10
2019-03-11T17:41:36.704Z,37.10
2019-03-11T17:44:02.667Z,37.80
2019-03-11T17:46:28.699Z,37.20
2019-03-11T17:48:54.682Z,37.20
2019-03-11T17:51:20.662Z,37.20
2019-03-11T17:53:46.618Z,37.30
2019-03-11T17:56:12.582Z,37.20
2019-03-11T17:58:38.557Z,37.20
2019-03-11T18:01:04.791Z,37.20
2019-03-11T18:03:30.755Z,37.10
2019-03-11T18:05:57.243Z,37.10
2019-03-11T18:08:23.383Z,37.10
2019-03-11T18:10:49.371Z,37.20
2019-03-11T18:13:15.426Z,37.40
2019-03-11T18:15:41.391Z,37.20
2019-03-11T18:18:07.478Z,37.20
2019-03-11T18:20:33.650Z,37.20
2019-03-11T18:22:59.612Z,37.20
2019-03-11T18:25:25.691Z,37.20
2019-03-11T18:27:51.697Z,37.10
2019-03-11T18:30:17.789Z,37.20
2019-03-11T18:32:43.829Z,37.10
2019-03-11T18:35:09.861Z,37.20
2019-03-11T18:37:35.926Z,37.10
2019-03-11T18:40:01.874Z,37.10
2019-03-11T18:42:28.532Z,37.10
2019-03-11T18:44:54.730Z,37.10
2019-03-11T18:47:20.788Z,37.20
2019-03-11T18:49:46.807Z,37.20
2019-03-11T18:52:12.885Z,37.20
2019-03-11T18:54:38.955Z,37.30
2019-03-11T18:57:05.049Z,37.30
2019-03-11T18:59:31.066Z,37.30
2019-03-11T19:01:57.137Z,37.30
2019-03-11T19:04:23.187Z,37.40
2019-03-11T19:06:49.235Z,37.40
2019-03-11T19:09:15.266Z,37.50
2019-03-11T19:11:41.275Z,37.50
2019-03-11T19:14:07.218Z,37.50
2019-03-11T19:16:33.349Z,37.50
2019-03-11T19:18:59.412Z,37.70
2019-03-11T19:21:25.466Z,37.60
2019-03-11T19:23:51.570Z,37.70
2019-03-11T19:26:17.756Z,37.90
2019-03-11T19:28:43.847Z,37.90
2019-03-11T19:31:09.899Z,37.90
2019-03-11T19:33:35.832Z,37.90
2019-03-11T19:36:01.917Z,37.90
2019-03-11T19:38:28.067Z,37.90
2019-03-11T19:40:54.115Z,38.00
2019-03-11T19:43:20.107Z,38.10
2019-03-11T19:45:46.113Z,38.00
2019-03-11T19:48:12.105Z,38.60
2019-03-11T19:50:38.305Z,38.00
2019-03-11T19:53:04.410Z,38.10
2019-03-11T19:55:30.526Z,38.20
2019-03-11T19:57:56.743Z,38.40
2019-03-11T20:00:22.866Z,38.40
2019-03-11T20:02:49.264Z,38.60
2019-03-11T20:05:15.349Z,38.70
2019-03-11T20:07:41.394Z,38.80
2019-03-11T20:10:07.485Z,38.80
2019-03-11T20:12:33.666Z,38.90
2019-03-11T20:14:59.770Z,39.00
2019-03-11T20:17:25.863Z,39.10
2019-03-11T20:19:51.890Z,39.20
2019-03-11T20:22:18.037Z,39.10
2019-03-11T20:24:44.038Z,39.20
2019-03-11T20:27:10.111Z,39.20
2019-03-11T20:29:36.149Z,39.20
2019-03-11T20:32:02.094Z,39.00
2019-03-11T20:34:28.293Z,38.60
2019-03-11T20:36:54.469Z,38.00
2019-03-11T20:39:20.521Z,37.80
2019-03-11T20:41:46.578Z,37.90
2019-03-11T20:44:12.649Z,37.90
2019-03-11T20:46:38.763Z,38.00
2019-03-11T20:49:04.897Z,37.90
2019-03-11T20:51:30.960Z,38.00
2019-03-11T20:53:57.042Z,37.90
2019-03-11T20:56:23.157Z,37.80
2019-03-11T20:58:49.205Z,37.80
2019-03-11T21:01:15.207Z,37.70
2019-03-11T21:03:41.246Z,37.60
2019-03-11T21:06:07.338Z,37.60
2019-03-11T21:08:33.337Z,38.20
2019-03-11T21:10:59.296Z,37.60
2019-03-11T21:13:25.383Z,37.60
2019-03-11T21:15:51.513Z,37.80
2019-03-11T21:18:17.597Z,37.80
2019-03-11T21:20:43.682Z,37.90
2019-03-11T21:23:09.874Z,37.90
2019-03-11T21:25:35.962Z,38.10
2019-03-11T21:28:02.044Z,38.00
2019-03-11T21:30:28.141Z,38.10
2019-03-11T21:32:54.234Z,38.20
2019-03-11T21:35:20.396Z,38.20
2019-03-11T21:37:46.617Z,38.20
2019-03-11T21:40:12.624Z,38.10
2019-03-11T21:42:38.676Z,38.20
2019-03-11T21:45:04.769Z,38.20
2019-03-11T21:47:30.854Z,38.20
2019-03-11T21:49:56.874Z,38.20
2019-03-11T21:52:22.900Z,38.20
2019-03-11T21:54:48.979Z,38.30
2019-03-11T21:57:14.965Z,38.30
2019-03-11T21:59:41.027Z,38.30
2019-03-11T22:02:07.245Z,38.40
2019-03-11T22:04:33.208Z,38.40
2019-03-11T22:06:59.255Z,38.40
2019-03-11T22:09:25.239Z,38.30
2019-03-11T22:11:51.292Z,38.30
2019-03-11T22:14:17.291Z,38.30
2019-03-11T22:16:43.248Z,38.30
2019-03-11T22:19:09.280Z,38.20
2019-03-11T22:21:35.265Z,38.10
2019-03-11T22:24:01.220Z,38.10
2019-03-11T22:26:27.164Z,38.20
2019-03-11T22:28:53.114Z,38.10
2019-03-11T22:31:19.082Z,38.20
2019-03-11T22:33:45.075Z,38.30
2019-03-11T22:36:11.129Z,38.20
2019-03-11T22:38:37.073Z,38.20
2019-03-11T22:41:03.008Z,38.30
2019-03-11T22:43:28.961Z,38.20
2019-03-11T22:45:54.916Z,38.20
2019-03-11T22:48:21.154Z,38.40
2019-03-11T22:50:47.249Z,38.40
2019-03-11T22:53:13.201Z,38.40
2019-03-11T22:55:39.494Z,38.40
2019-03-11T22:58:05.518Z,38.50
2019-03-11T23:00:42.625Z,38.50
2019-03-11T23:03:08.598Z,38.50
2019-03-11T23:05:34.668Z,38.50
2019-03-11T23:08:00.732Z,38.40
2019-03-11T23:10:26.793Z,38.50
2019-03-11T23:12:52.985Z,38.50
2019-03-11T23:15:18.986Z,38.90
2019-03-11T23:17:45.133Z,38.60
2019-03-11T23:20:11.205Z,38.50
2019-03-11T23:22:39.113Z,38.50
2019-03-11T23:25:05.167Z,38.50
2019-03-11T23:27:35.020Z,38.60
2019-03-11T23:29:59.970Z,38.60
2019-03-11T23:32:26.597Z,38.60
2019-03-11T23:34:52.571Z,39.30
2019-03-11T23:37:18.546Z,38.60
2019-03-11T23:39:44.565Z,38.60
2019-03-11T23:42:10.521Z,38.60
2019-03-11T23:44:36.575Z,38.60
2019-03-11T23:47:02.537Z,38.60
2019-03-11T23:49:28.481Z,38.50
2019-03-11T23:51:54.454Z,38.50
2019-03-11T23:54:20.413Z,38.50
2019-03-11T23:56:46.465Z,38.50
2019-03-11T23:59:12.421Z,38.40
